createdAt,value
2017-07-01T00:00:24.117Z,998.91
2017-07-01T00:00:50.253Z,998.88
2017-07-01T00:01:16.378Z,998.9
2017-07-01T00:01:42.485Z,998.9
2017-07-01T00:02:08.573Z,998.93
2017-07-01T00:02:34.701Z,998.9
2017-07-01T00:03:00.795Z,998.92
2017-07-01T00:03:26.918Z,998.91
2017-07-01T00:03:53.051Z,998.92
2017-07-01T00:04:19.138Z,998.96
2017-07-01T00:04:45.268Z,998.97
2017-07-01T00:05:11.399Z,998.94
2017-07-01T00:05:37.489Z,998.94
2017-07-01T00:06:03.586Z,998.94
2017-07-01T00:06:29.691Z,998.94
2017-07-01T00:06:55.785Z,998.95
2017-07-01T00:07:21.900Z,998.93
2017-07-01T00:07:48.030Z,998.96
2017-07-01T00:08:14.130Z,998.96
2017-07-01T00:08:40.234Z,998.95
2017-07-01T00:09:06.351Z,998.97
2017-07-01T00:09:32.475Z,998.91
2017-07-01T00:09:58.610Z,998.94
2017-07-01T00:10:24.729Z,998.89
2017-07-01T00:10:50.845Z,998.96
2017-07-01T00:11:17.006Z,998.93
2017-07-01T00:11:43.128Z,998.95
2017-07-01T00:12:09.220Z,998.93
2017-07-01T00:12:35.348Z,998.95
2017-07-01T00:13:01.501Z,998.94
2017-07-01T00:13:27.647Z,998.94
2017-07-01T00:13:53.743Z,998.95
2017-07-01T00:14:19.858Z,998.97
2017-07-01T00:14:46.034Z,998.94
2017-07-01T00:15:12.147Z,998.94
2017-07-01T00:15:38.238Z,998.93
2017-07-01T00:16:04.371Z,998.92
2017-07-01T00:16:30.497Z,998.94
2017-07-01T00:16:56.610Z,998.95
2017-07-01T00:17:22.739Z,998.97
2017-07-01T00:17:48.846Z,998.92
2017-07-01T00:18:15.007Z,998.98
2017-07-01T00:18:41.108Z,998.94
2017-07-01T00:19:07.254Z,998.93
2017-07-01T00:19:33.438Z,998.95
2017-07-01T00:19:59.536Z,998.95
2017-07-01T00:20:25.627Z,998.98
2017-07-01T00:20:51.753Z,998.94
2017-07-01T00:21:17.859Z,998.9
2017-07-01T00:21:43.945Z,998.94
2017-07-01T00:22:10.121Z,998.94
2017-07-01T00:22:36.251Z,998.91
2017-07-01T00:23:02.365Z,998.98
2017-07-01T00:23:28.486Z,998.95
2017-07-01T00:23:54.590Z,998.95
2017-07-01T00:24:20.685Z,998.93
2017-07-01T00:24:46.822Z,998.96
2017-07-01T00:25:12.985Z,998.92
2017-07-01T00:25:39.080Z,998.92
2017-07-01T00:26:05.169Z,998.95
2017-07-01T00:26:31.303Z,998.93
2017-07-01T00:26:57.432Z,998.93
2017-07-01T00:27:23.547Z,998.93
2017-07-01T00:27:49.680Z,998.92
2017-07-01T00:28:15.785Z,998.93
2017-07-01T00:28:41.874Z,998.97
2017-07-01T00:29:07.973Z,998.96
2017-07-01T00:29:34.164Z,998.95
2017-07-01T00:30:00.255Z,998.96
2017-07-01T00:30:26.386Z,998.92
2017-07-01T00:30:52.530Z,998.93
2017-07-01T00:31:18.602Z,998.94
2017-07-01T00:31:44.737Z,998.94
2017-07-01T00:32:10.825Z,998.94
2017-07-01T00:32:36.925Z,998.95
2017-07-01T00:33:03.087Z,998.97
2017-07-01T00:33:29.228Z,998.96
2017-07-01T00:33:55.351Z,998.99
2017-07-01T00:34:21.485Z,998.93
2017-07-01T00:34:47.612Z,998.95
2017-07-01T00:35:13.776Z,998.95
2017-07-01T00:35:39.908Z,998.97
2017-07-01T00:36:06.008Z,998.95
2017-07-01T00:36:32.114Z,998.95
2017-07-01T00:36:58.253Z,998.98
2017-07-01T00:37:24.376Z,998.94
2017-07-01T00:37:50.482Z,998.92
2017-07-01T00:38:16.575Z,998.94
2017-07-01T00:38:42.737Z,998.92
2017-07-01T00:39:08.874Z,998.95
2017-07-01T00:39:35.054Z,998.87
2017-07-01T00:40:01.142Z,998.94
2017-07-01T00:40:27.302Z,998.94
2017-07-01T00:40:53.403Z,998.94
2017-07-01T00:41:19.576Z,998.93
2017-07-01T00:41:45.723Z,998.94
2017-07-01T00:42:11.837Z,998.93
2017-07-01T00:42:37.945Z,998.91
2017-07-01T00:43:04.041Z,998.93
2017-07-01T00:43:30.155Z,998.94
2017-07-01T00:43:56.260Z,998.95
2017-07-01T00:44:22.360Z,998.94
2017-07-01T00:44:48.523Z,998.93
2017-07-01T00:45:14.625Z,998.95
2017-07-01T00:45:40.754Z,998.9
2017-07-01T00:46:06.866Z,998.95
2017-07-01T00:46:32.967Z,998.93
2017-07-01T00:46:59.062Z,998.91
2017-07-01T00:47:25.165Z,998.91
2017-07-01T00:47:51.289Z,998.89
2017-07-01T00:48:17.381Z,998.93
2017-07-01T00:48:43.486Z,998.9
2017-07-01T00:49:09.644Z,998.89
2017-07-01T00:49:35.809Z,998.9
2017-07-01T00:50:01.963Z,998.92
2017-07-01T00:50:28.097Z,998.91
2017-07-01T00:50:54.190Z,998.88
2017-07-01T00:51:20.311Z,998.87
2017-07-01T00:51:46.416Z,998.87
2017-07-01T00:52:12.534Z,998.9
2017-07-01T00:52:38.639Z,998.86
2017-07-01T00:53:04.774Z,998.9
2017-07-01T00:53:30.902Z,998.93
2017-07-01T00:53:57.065Z,998.88
2017-07-01T00:54:23.154Z,998.84
2017-07-01T00:54:49.302Z,998.89
2017-07-01T00:55:15.407Z,998.84
2017-07-01T00:55:41.501Z,998.87
2017-07-01T00:56:07.639Z,998.89
2017-07-01T00:56:33.777Z,998.9
2017-07-01T00:56:59.874Z,998.92
2017-07-01T00:57:25.963Z,998.86
2017-07-01T00:57:52.094Z,998.88
2017-07-01T00:58:18.212Z,998.87
2017-07-01T00:58:44.402Z,998.84
2017-07-01T00:59:10.525Z,998.85
2017-07-01T00:59:36.665Z,998.84
2017-07-01T01:00:02.800Z,998.83
2017-07-01T01:00:28.925Z,998.82
2017-07-01T01:00:55.016Z,998.85
2017-07-01T01:01:21.117Z,998.82
2017-07-01T01:01:47.272Z,998.82
2017-07-01T01:02:13.365Z,998.74
2017-07-01T01:02:39.465Z,998.79
2017-07-01T01:03:05.597Z,998.76
2017-07-01T01:03:31.690Z,998.78
2017-07-01T01:03:57.789Z,998.78
2017-07-01T01:04:23.927Z,998.79
2017-07-01T01:04:50.060Z,998.8
2017-07-01T01:05:16.161Z,998.8
2017-07-01T01:05:42.250Z,998.81
2017-07-01T01:06:08.376Z,998.77
2017-07-01T01:06:34.480Z,998.78
2017-07-01T01:07:00.569Z,998.77
2017-07-01T01:07:26.670Z,998.79
2017-07-01T01:07:52.774Z,998.8
2017-07-01T01:08:18.889Z,998.79
2017-07-01T01:08:44.986Z,998.82
2017-07-01T01:09:11.146Z,998.8
2017-07-01T01:09:37.266Z,998.81
2017-07-01T01:10:03.382Z,998.77
2017-07-01T01:10:29.492Z,998.79
2017-07-01T01:10:55.615Z,998.81
2017-07-01T01:11:21.706Z,998.78
2017-07-01T01:11:47.813Z,998.79
2017-07-01T01:12:13.912Z,998.78
2017-07-01T01:12:40.001Z,998.81
2017-07-01T01:13:06.104Z,998.77
2017-07-01T01:13:32.210Z,998.75
2017-07-01T01:13:58.323Z,998.78
2017-07-01T01:14:24.422Z,998.74
2017-07-01T01:14:50.544Z,998.77
2017-07-01T01:15:16.649Z,998.77
2017-07-01T01:15:42.750Z,998.72
2017-07-01T01:16:08.889Z,998.76
2017-07-01T01:16:35.018Z,998.74
2017-07-01T01:17:01.123Z,998.73
2017-07-01T01:17:27.211Z,998.75
2017-07-01T01:17:53.308Z,998.77
2017-07-01T01:18:19.417Z,998.75
2017-07-01T01:18:45.556Z,998.74
2017-07-01T01:19:11.702Z,998.69
2017-07-01T01:19:37.836Z,998.74
2017-07-01T01:20:03.958Z,998.72
2017-07-01T01:20:30.091Z,998.72
2017-07-01T01:20:56.177Z,998.74
2017-07-01T01:21:22.277Z,998.71
2017-07-01T01:21:48.440Z,998.71
2017-07-01T01:22:14.554Z,998.73
2017-07-01T01:22:40.651Z,998.72
2017-07-01T01:23:06.787Z,998.74
2017-07-01T01:23:32.880Z,998.73
2017-07-01T01:23:59.047Z,998.73
2017-07-01T01:24:25.155Z,998.74
2017-07-01T01:24:51.276Z,998.76
2017-07-01T01:25:17.391Z,998.72
2017-07-01T01:25:43.497Z,998.76
2017-07-01T01:26:09.639Z,998.71
2017-07-01T01:26:35.776Z,998.74
2017-07-01T01:27:01.868Z,998.74
2017-07-01T01:27:27.960Z,998.7
2017-07-01T01:27:54.068Z,998.73
2017-07-01T01:28:20.220Z,998.71
2017-07-01T01:28:46.333Z,998.75
2017-07-01T01:29:12.437Z,998.72
2017-07-01T01:29:38.593Z,998.76
2017-07-01T01:30:04.686Z,998.7
2017-07-01T01:30:30.786Z,998.68
2017-07-01T01:30:56.921Z,998.72
2017-07-01T01:31:23.014Z,998.72
2017-07-01T01:31:49.136Z,998.75
2017-07-01T01:32:15.225Z,998.7
2017-07-01T01:32:41.331Z,998.71
2017-07-01T01:33:07.431Z,998.74
2017-07-01T01:33:33.596Z,998.73
2017-07-01T01:33:59.747Z,998.75
2017-07-01T01:34:25.907Z,998.75
2017-07-01T01:34:52.015Z,998.72
2017-07-01T01:35:18.144Z,998.72
2017-07-01T01:35:44.246Z,998.74
2017-07-01T01:36:10.363Z,998.71
2017-07-01T01:36:36.460Z,998.73
2017-07-01T01:37:02.558Z,998.76
2017-07-01T01:37:28.659Z,998.73
2017-07-01T01:37:54.765Z,998.72
2017-07-01T01:38:20.852Z,998.72
2017-07-01T01:38:46.952Z,998.71
2017-07-01T01:39:13.061Z,998.74
2017-07-01T01:39:39.149Z,998.73
2017-07-01T01:40:05.247Z,998.69
2017-07-01T01:40:31.381Z,998.69
2017-07-01T01:40:57.499Z,998.7
2017-07-01T01:41:23.591Z,998.69
2017-07-01T01:41:49.728Z,998.74
2017-07-01T01:42:15.822Z,998.68
2017-07-01T01:42:41.977Z,998.7
2017-07-01T01:43:08.067Z,998.7
2017-07-01T01:43:34.187Z,998.67
2017-07-01T01:44:00.319Z,998.65
2017-07-01T01:44:26.414Z,998.66
2017-07-01T01:44:52.505Z,998.73
2017-07-01T01:45:18.611Z,998.68
2017-07-01T01:45:44.709Z,998.69
2017-07-01T01:46:10.799Z,998.62
2017-07-01T01:46:36.906Z,998.61
2017-07-01T01:47:03.004Z,998.65
2017-07-01T01:47:29.095Z,998.65
2017-07-01T01:47:55.196Z,998.65
2017-07-01T01:48:21.309Z,998.62
2017-07-01T01:48:47.450Z,998.58
2017-07-01T01:49:13.599Z,998.59
2017-07-01T01:49:39.691Z,998.55
2017-07-01T01:50:05.846Z,998.54
2017-07-01T01:50:31.944Z,998.51
2017-07-01T01:50:58.058Z,998.51
2017-07-01T01:51:24.163Z,998.49
2017-07-01T01:51:50.320Z,998.51
2017-07-01T01:52:16.409Z,998.49
2017-07-01T01:52:42.536Z,998.45
2017-07-01T01:53:08.641Z,998.46
2017-07-01T01:53:34.731Z,998.46
2017-07-01T01:54:00.826Z,998.42
2017-07-01T01:54:26.962Z,998.38
2017-07-01T01:54:53.052Z,998.42
2017-07-01T01:55:19.192Z,998.37
2017-07-01T01:55:45.327Z,998.36
2017-07-01T01:56:11.422Z,998.41
2017-07-01T01:56:37.537Z,998.36
2017-07-01T01:57:03.643Z,998.35
2017-07-01T01:57:29.743Z,998.33
2017-07-01T01:57:55.910Z,998.34
2017-07-01T01:58:22.037Z,998.3
2017-07-01T01:58:48.224Z,998.28
2017-07-01T01:59:14.317Z,998.27
2017-07-01T01:59:40.467Z,998.32
2017-07-01T02:00:06.606Z,998.32
2017-07-01T02:00:32.736Z,998.31
2017-07-01T02:00:58.862Z,998.28
2017-07-01T02:01:24.977Z,998.3
2017-07-01T02:01:51.104Z,998.3
2017-07-01T02:02:17.236Z,998.29
2017-07-01T02:02:43.363Z,998.29
2017-07-01T02:03:09.462Z,998.31
2017-07-01T02:03:35.596Z,998.25
2017-07-01T02:04:01.712Z,998.27
2017-07-01T02:04:27.832Z,998.28
2017-07-01T02:04:53.929Z,998.29
2017-07-01T02:05:20.051Z,998.29
2017-07-01T02:05:46.162Z,998.28
2017-07-01T02:06:12.273Z,998.31
2017-07-01T02:06:38.370Z,998.33
2017-07-01T02:07:04.459Z,998.29
2017-07-01T02:07:30.591Z,998.32
2017-07-01T02:07:56.690Z,998.34
2017-07-01T02:08:22.782Z,998.34
2017-07-01T02:08:48.913Z,998.33
2017-07-01T02:09:15.046Z,998.32
2017-07-01T02:09:41.134Z,998.3
2017-07-01T02:10:07.286Z,998.32
2017-07-01T02:10:33.406Z,998.31
2017-07-01T02:10:59.538Z,998.39
2017-07-01T02:11:25.651Z,998.3
2017-07-01T02:11:51.774Z,998.28
2017-07-01T02:12:17.907Z,998.33
2017-07-01T02:12:44.046Z,998.31
2017-07-01T02:13:10.129Z,998.33
2017-07-01T02:13:36.227Z,998.32
2017-07-01T02:14:02.388Z,998.32
2017-07-01T02:14:28.531Z,998.31
2017-07-01T02:14:54.629Z,998.32
2017-07-01T02:15:20.845Z,998.33
2017-07-01T02:15:46.939Z,998.3
2017-07-01T02:16:13.043Z,998.29
2017-07-01T02:16:39.131Z,998.3
2017-07-01T02:17:05.257Z,998.27
2017-07-01T02:17:31.361Z,998.3
2017-07-01T02:17:57.449Z,998.29
2017-07-01T02:18:23.592Z,998.31
2017-07-01T02:18:49.724Z,998.31
2017-07-01T02:19:15.817Z,998.28
2017-07-01T02:19:41.907Z,998.24
2017-07-01T02:20:08.070Z,998.27
2017-07-01T02:20:34.166Z,998.26
2017-07-01T02:21:00.257Z,998.27
2017-07-01T02:21:26.362Z,998.3
2017-07-01T02:21:52.456Z,998.25
2017-07-01T02:22:18.558Z,998.27
2017-07-01T02:22:44.654Z,998.32
2017-07-01T02:23:10.741Z,998.27
2017-07-01T02:23:36.850Z,998.24
2017-07-01T02:24:02.973Z,998.33
2017-07-01T02:24:29.134Z,998.3
2017-07-01T02:24:55.242Z,998.35
2017-07-01T02:25:21.340Z,998.36
2017-07-01T02:25:47.427Z,998.29
2017-07-01T02:26:13.555Z,998.32
2017-07-01T02:26:39.718Z,998.35
2017-07-01T02:27:05.810Z,998.37
2017-07-01T02:27:31.907Z,998.34
2017-07-01T02:27:58.000Z,998.33
2017-07-01T02:28:24.210Z,998.34
2017-07-01T02:28:50.335Z,998.34
2017-07-01T02:29:16.451Z,998.34
2017-07-01T02:29:42.577Z,998.33
2017-07-01T02:30:08.765Z,998.39
2017-07-01T02:30:34.874Z,998.34
2017-07-01T02:31:00.972Z,998.3
2017-07-01T02:31:27.132Z,998.26
2017-07-01T02:31:53.218Z,998.31
2017-07-01T02:32:19.315Z,998.31
2017-07-01T02:32:45.438Z,998.34
2017-07-01T02:33:11.541Z,998.31
2017-07-01T02:33:37.647Z,998.44
2017-07-01T02:34:03.734Z,998.33
2017-07-01T02:34:29.833Z,998.29
2017-07-01T02:34:55.964Z,998.31
2017-07-01T02:35:22.104Z,998.27
2017-07-01T02:35:48.221Z,998.28
2017-07-01T02:36:14.326Z,998.33
2017-07-01T02:36:40.442Z,998.38
2017-07-01T02:37:06.588Z,998.33
2017-07-01T02:37:32.752Z,998.36
2017-07-01T02:37:58.847Z,998.4
2017-07-01T02:38:24.935Z,998.4
2017-07-01T02:38:51.093Z,998.4
2017-07-01T02:39:17.273Z,998.45
2017-07-01T02:39:43.363Z,998.42
2017-07-01T02:40:09.490Z,998.43
2017-07-01T02:40:35.623Z,998.44
2017-07-01T02:41:01.735Z,998.43
2017-07-01T02:41:27.835Z,998.44
2017-07-01T02:41:53.995Z,998.45
2017-07-01T02:42:20.082Z,998.42
2017-07-01T02:42:46.178Z,998.43
2017-07-01T02:43:12.310Z,998.42
2017-07-01T02:43:38.404Z,998.45
2017-07-01T02:44:04.531Z,998.41
2017-07-01T02:44:30.618Z,998.41
2017-07-01T02:44:56.718Z,998.44
2017-07-01T02:45:22.850Z,998.48
2017-07-01T02:45:48.939Z,998.46
2017-07-01T02:46:15.033Z,998.48
2017-07-01T02:46:41.139Z,998.48
2017-07-01T02:47:07.233Z,998.45
2017-07-01T02:47:33.397Z,998.45
2017-07-01T02:47:59.536Z,998.47
2017-07-01T02:48:25.655Z,998.44
2017-07-01T02:48:51.773Z,998.47
2017-07-01T02:49:17.955Z,998.49
2017-07-01T02:49:44.072Z,998.44
2017-07-01T02:50:10.204Z,998.49
2017-07-01T02:50:36.355Z,998.52
2017-07-01T02:51:02.408Z,998.48
2017-07-01T02:51:28.547Z,998.46
2017-07-01T02:51:54.642Z,998.48
2017-07-01T02:52:20.755Z,998.44
2017-07-01T02:52:46.860Z,998.5
2017-07-01T02:53:13.017Z,998.47
2017-07-01T02:53:39.177Z,998.46
2017-07-01T02:54:05.303Z,998.5
2017-07-01T02:54:31.434Z,998.5
2017-07-01T02:54:57.574Z,998.42
2017-07-01T02:55:23.670Z,998.43
2017-07-01T02:55:49.786Z,998.46
2017-07-01T02:56:15.888Z,998.45
2017-07-01T02:56:42.010Z,998.42
2017-07-01T02:57:08.147Z,998.4
2017-07-01T02:57:34.251Z,998.43
2017-07-01T02:58:00.458Z,998.45
2017-07-01T02:58:26.548Z,998.42
2017-07-01T02:58:52.703Z,998.37
2017-07-01T02:59:18.834Z,998.41
2017-07-01T02:59:44.975Z,998.39
2017-07-01T03:00:11.072Z,998.34
2017-07-01T03:00:37.177Z,998.39
2017-07-01T03:01:03.270Z,998.42
2017-07-01T03:01:29.360Z,998.36
2017-07-01T03:01:55.466Z,998.33
2017-07-01T03:02:21.563Z,998.35
2017-07-01T03:02:47.678Z,998.31
2017-07-01T03:03:13.784Z,998.34
2017-07-01T03:03:39.910Z,998.36
2017-07-01T03:04:06.026Z,998.35
2017-07-01T03:04:32.154Z,998.34
2017-07-01T03:04:58.260Z,998.34
2017-07-01T03:05:24.347Z,998.4
2017-07-01T03:05:50.449Z,998.38
2017-07-01T03:06:16.594Z,998.39
2017-07-01T03:06:42.726Z,998.38
2017-07-01T03:07:08.848Z,998.34
2017-07-01T03:07:34.964Z,998.35
2017-07-01T03:08:01.068Z,998.38
2017-07-01T03:08:27.217Z,998.34
2017-07-01T03:08:53.366Z,998.39
2017-07-01T03:09:19.491Z,998.38
2017-07-01T03:09:45.626Z,998.38
2017-07-01T03:10:11.716Z,998.4
2017-07-01T03:10:37.812Z,998.4
2017-07-01T03:11:03.943Z,998.39
2017-07-01T03:11:30.061Z,998.34
2017-07-01T03:11:56.166Z,998.37
2017-07-01T03:12:22.254Z,998.35
2017-07-01T03:12:48.432Z,998.35
2017-07-01T03:13:14.594Z,998.38
2017-07-01T03:13:40.732Z,998.38
2017-07-01T03:14:06.828Z,998.39
2017-07-01T03:14:32.990Z,998.41
2017-07-01T03:14:59.139Z,998.31
2017-07-01T03:15:25.230Z,998.4
2017-07-01T03:15:51.367Z,998.37
2017-07-01T03:16:17.490Z,998.37
2017-07-01T03:16:43.605Z,998.32
2017-07-01T03:17:09.735Z,998.34
2017-07-01T03:17:35.828Z,998.33
2017-07-01T03:18:01.932Z,998.3
2017-07-01T03:18:28.047Z,998.31
2017-07-01T03:18:54.216Z,998.34
2017-07-01T03:19:20.295Z,998.37
2017-07-01T03:19:46.418Z,998.29
2017-07-01T03:20:12.530Z,998.35
2017-07-01T03:20:38.665Z,998.29
2017-07-01T03:21:04.767Z,998.28
2017-07-01T03:21:30.881Z,998.29
2017-07-01T03:21:57.010Z,998.3
2017-07-01T03:22:23.142Z,998.37
2017-07-01T03:22:49.252Z,998.29
2017-07-01T03:23:15.350Z,998.28
2017-07-01T03:23:41.539Z,998.25
2017-07-01T03:24:07.653Z,998.23
2017-07-01T03:24:33.774Z,998.22
2017-07-01T03:24:59.878Z,998.21
2017-07-01T03:25:25.969Z,998.23
2017-07-01T03:25:52.059Z,998.31
2017-07-01T03:26:18.222Z,998.25
2017-07-01T03:26:44.347Z,998.26
2017-07-01T03:27:10.486Z,998.23
2017-07-01T03:27:36.592Z,998.24
2017-07-01T03:28:02.719Z,998.25
2017-07-01T03:28:28.846Z,998.25
2017-07-01T03:28:54.960Z,998.3
2017-07-01T03:29:21.072Z,998.29
2017-07-01T03:29:47.182Z,998.27
2017-07-01T03:30:13.356Z,998.35
2017-07-01T03:30:39.442Z,998.27
2017-07-01T03:31:05.576Z,998.29
2017-07-01T03:31:31.676Z,998.27
2017-07-01T03:31:57.794Z,998.35
2017-07-01T03:32:23.892Z,998.3
2017-07-01T03:32:50.026Z,998.26
2017-07-01T03:33:16.142Z,998.24
2017-07-01T03:33:42.264Z,998.27
2017-07-01T03:34:08.360Z,998.25
2017-07-01T03:34:34.541Z,998.2
2017-07-01T03:35:00.639Z,998.21
2017-07-01T03:35:26.729Z,998.23
2017-07-01T03:35:52.832Z,998.21
2017-07-01T03:36:18.940Z,998.19
2017-07-01T03:36:45.055Z,998.23
2017-07-01T03:37:11.203Z,998.17
2017-07-01T03:37:37.336Z,998.22
2017-07-01T03:38:03.450Z,998.23
2017-07-01T03:38:29.549Z,998.26
2017-07-01T03:38:55.709Z,998.28
2017-07-01T03:39:21.876Z,998.22
2017-07-01T03:39:48.035Z,998.24
2017-07-01T03:40:14.147Z,998.27
2017-07-01T03:40:40.246Z,998.25
2017-07-01T03:41:06.350Z,998.33
2017-07-01T03:41:32.438Z,998.27
2017-07-01T03:41:58.536Z,998.29
2017-07-01T03:42:24.639Z,998.28
2017-07-01T03:42:50.734Z,998.44
2017-07-01T03:43:16.895Z,998.28
2017-07-01T03:43:43.305Z,998.3
2017-07-01T03:44:09.400Z,998.25
2017-07-01T03:44:35.491Z,998.26
2017-07-01T03:45:01.595Z,998.33
2017-07-01T03:45:27.739Z,998.3
2017-07-01T03:45:53.875Z,998.27
2017-07-01T03:46:19.967Z,998.26
2017-07-01T03:46:46.056Z,998.3
2017-07-01T03:47:12.190Z,998.32
2017-07-01T03:47:38.283Z,998.26
2017-07-01T03:48:04.398Z,998.24
2017-07-01T03:48:30.528Z,998.27
2017-07-01T03:48:56.656Z,998.24
2017-07-01T03:49:22.771Z,998.32
2017-07-01T03:49:48.927Z,998.3
2017-07-01T03:50:15.060Z,998.32
2017-07-01T03:50:41.153Z,998.26
2017-07-01T03:51:07.247Z,998.33
2017-07-01T03:51:33.360Z,998.27
2017-07-01T03:51:59.493Z,998.31
2017-07-01T03:52:25.592Z,998.34
2017-07-01T03:52:51.709Z,998.32
2017-07-01T03:53:17.838Z,998.34
2017-07-01T03:53:43.998Z,998.31
2017-07-01T03:54:10.109Z,998.32
2017-07-01T03:54:36.308Z,998.3
2017-07-01T03:55:02.417Z,998.31
2017-07-01T03:55:28.533Z,998.31
2017-07-01T03:55:54.656Z,998.31
2017-07-01T03:56:20.808Z,998.31
2017-07-01T03:56:46.910Z,998.3
2017-07-01T03:57:13.071Z,998.31
2017-07-01T03:57:39.156Z,998.32
2017-07-01T03:58:05.254Z,998.29
2017-07-01T03:58:31.360Z,998.31
2017-07-01T03:58:57.499Z,998.33
2017-07-01T03:59:23.597Z,998.34
2017-07-01T03:59:49.703Z,998.28
2017-07-01T04:00:15.820Z,998.29
2017-07-01T04:00:41.910Z,998.31
2017-07-01T04:01:08.096Z,998.32
2017-07-01T04:01:34.191Z,998.3
2017-07-01T04:02:00.292Z,998.33
2017-07-01T04:02:26.382Z,998.36
2017-07-01T04:02:52.501Z,998.48
2017-07-01T04:03:18.663Z,998.33
2017-07-01T04:03:44.785Z,998.31
2017-07-01T04:04:10.900Z,998.28
2017-07-01T04:04:37.022Z,998.37
2017-07-01T04:05:03.175Z,998.35
2017-07-01T04:05:29.263Z,998.31
2017-07-01T04:05:55.369Z,998.3
2017-07-01T04:06:21.493Z,998.33
2017-07-01T04:06:47.585Z,998.28
2017-07-01T04:07:13.714Z,998.29
2017-07-01T04:07:39.819Z,998.29
2017-07-01T04:08:05.933Z,998.27
2017-07-01T04:08:32.034Z,998.24
2017-07-01T04:08:58.222Z,998.28
2017-07-01T04:09:24.315Z,998.29
2017-07-01T04:09:50.459Z,998.23
2017-07-01T04:10:16.589Z,998.2
2017-07-01T04:10:42.711Z,998.24
2017-07-01T04:11:08.799Z,998.25
2017-07-01T04:11:34.908Z,998.24
2017-07-01T04:12:01.002Z,998.34
2017-07-01T04:12:27.109Z,998.26
2017-07-01T04:12:53.223Z,998.31
2017-07-01T04:13:19.371Z,998.27
2017-07-01T04:13:45.504Z,998.23
2017-07-01T04:14:11.597Z,998.24
2017-07-01T04:14:37.712Z,998.27
2017-07-01T04:15:03.821Z,998.23
2017-07-01T04:15:29.916Z,998.19
2017-07-01T04:15:56.053Z,998.18
2017-07-01T04:16:22.160Z,998.22
2017-07-01T04:16:48.256Z,998.18
2017-07-01T04:17:14.373Z,998.14
2017-07-01T04:17:40.524Z,998.17
2017-07-01T04:18:06.655Z,998.15
2017-07-01T04:18:32.801Z,998.26
2017-07-01T04:18:58.925Z,998.17
2017-07-01T04:19:25.013Z,998.2
2017-07-01T04:19:51.119Z,998.28
2017-07-01T04:20:17.217Z,998.17
2017-07-01T04:20:43.305Z,998.23
2017-07-01T04:21:09.457Z,998.27
2017-07-01T04:21:35.561Z,998.26
2017-07-01T04:22:01.673Z,998.23
2017-07-01T04:22:27.771Z,998.24
2017-07-01T04:22:53.878Z,998.23
2017-07-01T04:23:19.969Z,998.27
2017-07-01T04:23:46.088Z,998.2
2017-07-01T04:24:12.236Z,998.23
2017-07-01T04:24:38.339Z,998.17
2017-07-01T04:25:04.473Z,998.19
2017-07-01T04:25:30.563Z,998.15
2017-07-01T04:25:56.687Z,998.17
2017-07-01T04:26:22.791Z,998.1
2017-07-01T04:26:48.908Z,998.12
2017-07-01T04:27:15.076Z,998.17
2017-07-01T04:27:41.179Z,998.14
2017-07-01T04:28:07.271Z,998.15
2017-07-01T04:28:33.384Z,998.17
2017-07-01T04:28:59.549Z,998.17
2017-07-01T04:29:25.646Z,998.15
2017-07-01T04:29:51.746Z,998.18
2017-07-01T04:30:17.834Z,998.13
2017-07-01T04:30:43.956Z,998.31
2017-07-01T04:31:10.061Z,998.16
2017-07-01T04:31:36.181Z,998.17
2017-07-01T04:32:02.270Z,998.13
2017-07-01T04:32:28.460Z,998.11
2017-07-01T04:32:54.580Z,998.12
2017-07-01T04:33:20.669Z,998.12
2017-07-01T04:33:46.777Z,998.15
2017-07-01T04:34:12.876Z,998.19
2017-07-01T04:34:38.990Z,998.18
2017-07-01T04:35:05.142Z,998.12
2017-07-01T04:35:31.263Z,998.19
2017-07-01T04:35:57.371Z,998.1
2017-07-01T04:36:23.494Z,998.1
2017-07-01T04:36:49.607Z,998.04
2017-07-01T04:37:15.741Z,998.07
2017-07-01T04:37:41.839Z,998.15
2017-07-01T04:38:07.953Z,998.11
2017-07-01T04:38:34.110Z,998.18
2017-07-01T04:39:00.214Z,998.2
2017-07-01T04:39:26.299Z,998.2
2017-07-01T04:39:52.400Z,998.22
2017-07-01T04:40:18.506Z,998.15
2017-07-01T04:40:44.646Z,998.18
2017-07-01T04:41:10.779Z,998.24
2017-07-01T04:41:36.920Z,998.22
2017-07-01T04:42:03.071Z,998.21
2017-07-01T04:42:29.175Z,998.17
2017-07-01T04:42:55.363Z,998.37
2017-07-01T04:43:21.460Z,998.26
2017-07-01T04:43:47.562Z,998.26
2017-07-01T04:44:13.709Z,998.2
2017-07-01T04:44:39.828Z,998.22
2017-07-01T04:45:05.962Z,998.23
2017-07-01T04:45:32.057Z,998.3
2017-07-01T04:45:58.168Z,998.33
2017-07-01T04:46:24.270Z,998.33
2017-07-01T04:46:50.371Z,998.32
2017-07-01T04:47:16.475Z,998.29
2017-07-01T04:47:42.562Z,998.32
2017-07-01T04:48:08.657Z,998.39
2017-07-01T04:48:34.818Z,998.32
2017-07-01T04:49:00.966Z,998.25
2017-07-01T04:49:27.066Z,998.35
2017-07-01T04:49:53.189Z,998.37
2017-07-01T04:50:19.313Z,998.24
2017-07-01T04:50:45.401Z,998.28
2017-07-01T04:51:11.510Z,998.27
2017-07-01T04:51:37.608Z,998.26
2017-07-01T04:52:03.723Z,998.36
2017-07-01T04:52:29.824Z,998.38
2017-07-01T04:52:55.929Z,998.24
2017-07-01T04:53:22.013Z,998.31
2017-07-01T04:53:48.140Z,998.29
2017-07-01T04:54:14.301Z,998.28
2017-07-01T04:54:40.418Z,998.25
2017-07-01T04:55:06.514Z,998.28
2017-07-01T04:55:32.645Z,998.26
2017-07-01T04:55:58.767Z,998.32
2017-07-01T04:56:24.883Z,998.3
2017-07-01T04:56:50.992Z,998.2
2017-07-01T04:57:17.113Z,998.2
2017-07-01T04:57:43.245Z,998.31
2017-07-01T04:58:09.364Z,998.33
2017-07-01T04:58:35.461Z,998.28
2017-07-01T04:59:01.566Z,998.24
2017-07-01T04:59:27.686Z,998.23
2017-07-01T04:59:53.802Z,998.24
2017-07-01T05:00:19.908Z,998.26
2017-07-01T05:00:46.005Z,998.25
2017-07-01T05:01:12.093Z,998.22
2017-07-01T05:01:38.198Z,998.24
2017-07-01T05:02:04.378Z,998.25
2017-07-01T05:02:30.466Z,998.24
2017-07-01T05:02:56.568Z,998.34
2017-07-01T05:03:22.687Z,998.24
2017-07-01T05:03:48.849Z,998.25
2017-07-01T05:04:14.944Z,998.26
2017-07-01T05:04:41.034Z,998.27
2017-07-01T05:05:07.139Z,998.26
2017-07-01T05:05:33.240Z,998.26
2017-07-01T05:05:59.353Z,998.29
2017-07-01T05:06:25.453Z,998.26
2017-07-01T05:06:51.583Z,998.29
2017-07-01T05:07:17.669Z,998.29
2017-07-01T05:07:43.793Z,998.27
2017-07-01T05:08:09.897Z,998.29
2017-07-01T05:08:36.012Z,998.4
2017-07-01T05:09:02.113Z,998.31
2017-07-01T05:09:28.227Z,998.3
2017-07-01T05:09:54.325Z,998.34
2017-07-01T05:10:20.458Z,998.3
2017-07-01T05:10:46.594Z,998.29
2017-07-01T05:11:12.691Z,998.27
2017-07-01T05:11:38.794Z,998.3
2017-07-01T05:12:04.885Z,998.28
2017-07-01T05:12:31.030Z,998.3
2017-07-01T05:12:57.192Z,998.32
2017-07-01T05:13:23.313Z,998.34
2017-07-01T05:13:49.405Z,998.3
2017-07-01T05:14:15.507Z,998.33
2017-07-01T05:14:41.608Z,998.29
2017-07-01T05:15:07.713Z,998.3
2017-07-01T05:15:33.827Z,998.28
2017-07-01T05:15:59.925Z,998.31
2017-07-01T05:16:26.057Z,998.38
2017-07-01T05:16:52.149Z,998.34
2017-07-01T05:17:18.239Z,998.3
2017-07-01T05:17:44.347Z,998.37
2017-07-01T05:18:10.442Z,998.41
2017-07-01T05:18:36.529Z,998.34
2017-07-01T05:19:02.636Z,998.37
2017-07-01T05:19:28.764Z,998.37
2017-07-01T05:19:54.862Z,998.38
2017-07-01T05:20:20.981Z,998.35
2017-07-01T05:20:47.069Z,998.37
2017-07-01T05:21:13.179Z,998.33
2017-07-01T05:21:39.271Z,998.44
2017-07-01T05:22:05.388Z,998.43
2017-07-01T05:22:31.493Z,998.38
2017-07-01T05:22:57.621Z,998.39
2017-07-01T05:23:23.759Z,998.39
2017-07-01T05:23:49.917Z,998.39
2017-07-01T05:24:16.050Z,998.43
2017-07-01T05:24:42.138Z,998.37
2017-07-01T05:25:08.238Z,998.38
2017-07-01T05:25:34.406Z,998.37
2017-07-01T05:26:00.510Z,998.37
2017-07-01T05:26:26.637Z,998.36
2017-07-01T05:26:52.752Z,998.36